createdAt,value
2024-01-12T00:01:13.493Z,1.52
2024-01-12T00:03:40.162Z,1.53
2024-01-12T00:06:06.861Z,1.52
2024-01-12T00:08:34.189Z,1.53
2024-01-12T00:11:00.945Z,1.53
2024-01-12T00:13:27.528Z,1.53
2024-01-12T00:15:54.108Z,1.55
2024-01-12T00:18:20.882Z,1.56
2024-01-12T00:20:47.567Z,1.57
2024-01-12T00:23:14.341Z,1.58
2024-01-12T00:25:40.940Z,1.59
2024-01-12T00:28:07.483Z,1.59
2024-01-12T00:30:34.073Z,1.59
2024-01-12T00:33:00.783Z,1.60
2024-01-12T00:35:27.364Z,1.60
2024-01-12T00:37:53.960Z,1.59
2024-01-12T00:40:20.500Z,1.60
2024-01-12T00:42:47.091Z,1.61
2024-01-12T00:45:13.693Z,1.61
2024-01-12T00:47:40.295Z,1.61
2024-01-12T00:50:07.179Z,1.64
2024-01-12T00:52:33.721Z,1.63
2024-01-12T00:55:00.910Z,1.65
2024-01-12T00:57:27.559Z,1.69
2024-01-12T00:59:54.096Z,1.70
2024-01-12T01:02:20.742Z,1.71
2024-01-12T01:04:47.280Z,1.73
2024-01-12T01:07:13.916Z,1.75
2024-01-12T01:09:40.393Z,1.76
2024-01-12T01:12:07.286Z,1.78
2024-01-12T01:14:34.030Z,1.79
2024-01-12T01:17:00.584Z,1.80
2024-01-12T01:19:27.127Z,1.82
2024-01-12T01:21:56.552Z,1.82
2024-01-12T01:24:23.138Z,1.83
2024-01-12T01:26:49.778Z,1.84
2024-01-12T01:29:16.346Z,1.85
2024-01-12T01:31:42.980Z,1.84
2024-01-12T01:34:10.027Z,1.83
2024-01-12T01:36:36.875Z,1.84
2024-01-12T01:39:03.484Z,1.84
2024-01-12T01:41:30.063Z,1.83
2024-01-12T01:43:56.681Z,1.84
2024-01-12T01:46:23.890Z,1.82
2024-01-12T01:48:50.705Z,1.79
2024-01-12T01:51:17.415Z,1.80
2024-01-12T01:53:44.493Z,1.78
2024-01-12T01:56:12.675Z,1.76
2024-01-12T01:58:39.565Z,1.79
2024-01-12T02:01:06.727Z,1.79
2024-01-12T02:03:34.279Z,1.81
2024-01-12T02:06:01.066Z,1.81
2024-01-12T02:08:28.724Z,1.81
2024-01-12T02:10:57.021Z,1.80
2024-01-12T02:13:24.141Z,1.80
2024-01-12T02:15:50.782Z,1.80
2024-01-12T02:18:18.427Z,1.80
2024-01-12T02:20:58.917Z,1.79
2024-01-12T02:23:25.654Z,1.82
2024-01-12T02:25:52.253Z,1.80
2024-01-12T02:28:18.863Z,1.80
2024-01-12T02:30:45.712Z,1.79
2024-01-12T02:33:12.403Z,1.79
2024-01-12T02:35:39.199Z,1.80
2024-01-12T02:38:05.719Z,1.80
2024-01-12T02:40:32.272Z,1.80
2024-01-12T02:43:02.716Z,1.82
2024-01-12T02:45:29.333Z,1.82
2024-01-12T02:47:55.903Z,1.82
2024-01-12T02:50:23.452Z,1.81
2024-01-12T02:52:50.085Z,1.83
2024-01-12T02:55:16.783Z,1.82
2024-01-12T02:57:43.344Z,1.83
2024-01-12T03:00:10.712Z,1.83
2024-01-12T03:02:37.410Z,1.82
2024-01-12T03:05:04.228Z,1.82
2024-01-12T03:07:30.829Z,1.82
2024-01-12T03:09:57.415Z,1.82
2024-01-12T03:12:24.004Z,1.82
2024-01-12T03:14:51.568Z,1.85
2024-01-12T03:17:18.204Z,1.86
2024-01-12T03:19:44.735Z,1.87
2024-01-12T03:22:12.351Z,1.87
2024-01-12T03:24:38.857Z,1.89
2024-01-12T03:27:05.626Z,1.91
2024-01-12T03:29:32.667Z,1.92
2024-01-12T03:31:59.219Z,1.94
2024-01-12T03:34:29.037Z,1.94
2024-01-12T03:36:55.608Z,1.95
2024-01-12T03:39:22.102Z,1.95
2024-01-12T03:41:48.781Z,1.96
2024-01-12T03:44:15.451Z,1.95
2024-01-12T03:46:41.991Z,1.97
2024-01-12T03:49:08.563Z,1.97
2024-01-12T03:51:35.112Z,1.97
2024-01-12T03:54:02.016Z,1.96
2024-01-12T03:56:31.609Z,1.97
2024-01-12T03:58:58.198Z,1.97
2024-01-12T04:01:24.883Z,1.98
2024-01-12T04:03:51.464Z,1.98
2024-01-12T04:06:22.327Z,1.99
2024-01-12T04:08:48.999Z,1.99
2024-01-12T04:11:23.509Z,1.99
2024-01-12T04:13:50.155Z,1.99
2024-01-12T04:16:16.711Z,2.00
2024-01-12T04:18:43.511Z,2.00
2024-01-12T04:21:10.705Z,2.01
2024-01-12T04:23:38.573Z,2.02
2024-01-12T04:26:05.345Z,2.02
2024-01-12T04:28:31.888Z,2.03
2024-01-12T04:30:58.786Z,2.04
2024-01-12T04:33:27.481Z,2.03
2024-01-12T04:35:54.165Z,2.04
2024-01-12T04:38:20.872Z,2.03
2024-01-12T04:40:47.467Z,2.04
2024-01-12T04:43:13.989Z,2.02
2024-01-12T04:45:41.365Z,2.02
2024-01-12T04:48:08.116Z,2.02
2024-01-12T04:50:34.876Z,2.01
2024-01-12T04:53:01.499Z,2.00
2024-01-12T04:55:28.771Z,2.00
2024-01-12T04:57:55.419Z,2.01
2024-01-12T05:00:22.238Z,2.00
2024-01-12T05:02:48.829Z,2.00
2024-01-12T05:05:15.642Z,2.01
2024-01-12T05:07:42.177Z,1.99
2024-01-12T05:10:09.543Z,1.99
2024-01-12T05:12:38.948Z,1.98
2024-01-12T05:15:06.180Z,1.98
2024-01-12T05:17:32.821Z,1.98
2024-01-12T05:20:01.061Z,1.97
2024-01-12T05:22:27.597Z,1.96
2024-01-12T05:25:07.429Z,1.96
2024-01-12T05:27:34.122Z,1.96
2024-01-12T05:30:03.336Z,1.94
2024-01-12T05:32:31.130Z,1.96
2024-01-12T05:34:57.773Z,1.95
2024-01-12T05:37:24.767Z,1.95
2024-01-12T05:39:52.001Z,1.95
2024-01-12T05:42:18.521Z,1.93
2024-01-12T05:44:45.190Z,1.93
2024-01-12T05:47:11.868Z,1.93
2024-01-12T05:49:39.138Z,1.94
2024-01-12T05:52:06.081Z,1.92
2024-01-12T05:54:32.862Z,1.94
2024-01-12T05:56:59.414Z,1.93
2024-01-12T05:59:26.007Z,1.93
2024-01-12T06:01:52.639Z,1.94
2024-01-12T06:04:20.343Z,1.94
2024-01-12T06:06:47.574Z,1.94
2024-01-12T06:09:14.196Z,1.94
2024-01-12T06:11:44.307Z,1.94
2024-01-12T06:14:11.766Z,1.94
2024-01-12T06:16:38.918Z,1.94
2024-01-12T06:19:05.727Z,1.94
2024-01-12T06:21:32.308Z,1.95
2024-01-12T06:23:58.837Z,1.95
2024-01-12T06:26:25.436Z,1.96
2024-01-12T06:28:51.960Z,1.96
2024-01-12T06:31:18.439Z,1.95
2024-01-12T06:33:44.992Z,1.96
2024-01-12T06:36:11.546Z,1.95
2024-01-12T06:38:38.747Z,1.98
2024-01-12T06:41:05.320Z,1.96
2024-01-12T06:43:31.928Z,1.96
2024-01-12T06:46:09.662Z,1.98
2024-01-12T06:48:36.290Z,1.98
2024-01-12T06:51:02.894Z,1.98
2024-01-12T06:53:29.513Z,1.98
2024-01-12T06:55:56.107Z,2.00
2024-01-12T06:58:22.896Z,2.00
2024-01-12T07:00:49.660Z,1.98
2024-01-12T07:03:16.512Z,1.99
2024-01-12T07:05:43.251Z,2.00
2024-01-12T07:08:09.877Z,1.99
2024-01-12T07:10:36.360Z,2.00
2024-01-12T07:13:02.896Z,2.01
2024-01-12T07:15:29.396Z,2.01
2024-01-12T07:17:56.157Z,2.03
2024-01-12T07:20:23.160Z,2.01
2024-01-12T07:22:49.661Z,2.02
2024-01-12T07:25:16.191Z,2.03
2024-01-12T07:27:44.311Z,2.03
2024-01-12T07:30:12.173Z,2.03
2024-01-12T07:32:38.914Z,2.03
2024-01-12T07:35:06.000Z,2.04
2024-01-12T07:37:32.487Z,2.02
2024-01-12T07:39:59.042Z,2.04
2024-01-12T07:42:25.545Z,2.03
2024-01-12T07:44:52.111Z,2.04
2024-01-12T07:47:18.740Z,2.04
2024-01-12T07:49:48.775Z,2.05
2024-01-12T07:52:19.063Z,2.03
2024-01-12T07:54:46.804Z,2.03
2024-01-12T07:57:13.446Z,2.03
2024-01-12T07:59:40.139Z,2.03
2024-01-12T08:02:06.684Z,2.03
2024-01-12T08:04:33.291Z,2.05
2024-01-12T08:07:00.130Z,2.04
2024-01-12T08:09:27.040Z,2.05
2024-01-12T08:11:53.758Z,2.05
2024-01-12T08:14:20.309Z,2.06
2024-01-12T08:16:46.759Z,2.06
2024-01-12T08:19:13.372Z,2.08
2024-01-12T08:21:45.753Z,2.08
2024-01-12T08:24:19.102Z,2.08
2024-01-12T08:26:49.043Z,2.08
2024-01-12T08:29:15.798Z,2.09
2024-01-12T08:31:43.212Z,2.12
2024-01-12T08:34:10.473Z,2.13
2024-01-12T08:36:37.040Z,2.14
2024-01-12T08:39:03.816Z,2.14
2024-01-12T08:41:30.397Z,2.15
2024-01-12T08:43:58.578Z,2.16
2024-01-12T08:46:25.344Z,2.18
2024-01-12T08:48:53.675Z,2.18
2024-01-12T08:51:20.583Z,2.19
2024-01-12T08:53:47.378Z,2.19
2024-01-12T08:56:13.987Z,2.22
2024-01-12T08:58:40.477Z,2.22
2024-01-12T09:01:07.192Z,2.24
2024-01-12T09:03:33.928Z,2.25
2024-01-12T09:06:00.880Z,2.26
2024-01-12T09:08:27.713Z,2.29
2024-01-12T09:10:54.327Z,2.33
2024-01-12T09:13:20.836Z,2.34
2024-01-12T09:15:47.366Z,2.36
2024-01-12T09:18:13.991Z,2.38
2024-01-12T09:20:40.884Z,2.41
2024-01-12T09:23:07.566Z,2.42
2024-01-12T09:25:34.034Z,2.43
2024-01-12T09:28:00.698Z,2.45
2024-01-12T09:30:27.281Z,2.46
2024-01-12T09:32:54.069Z,2.49
2024-01-12T09:35:21.507Z,2.50
2024-01-12T09:37:48.150Z,2.53
2024-01-12T09:40:14.904Z,2.54
2024-01-12T09:42:45.151Z,2.57
2024-01-12T09:45:21.384Z,2.57
2024-01-12T09:47:51.093Z,2.61
2024-01-12T09:50:22.923Z,2.63
2024-01-12T09:52:50.636Z,2.65
2024-01-12T09:55:17.614Z,2.68
2024-01-12T09:57:45.928Z,2.71
2024-01-12T10:00:15.982Z,2.72
2024-01-12T10:02:43.768Z,2.76
2024-01-12T10:05:10.482Z,2.77
2024-01-12T10:07:37.590Z,2.78
2024-01-12T10:10:04.370Z,2.80
2024-01-12T10:12:30.873Z,2.83
2024-01-12T10:15:05.556Z,2.84
2024-01-12T10:17:33.029Z,2.86
2024-01-12T10:19:59.824Z,2.88
2024-01-12T10:22:26.507Z,2.91
2024-01-12T10:25:04.670Z,2.92
2024-01-12T10:27:32.240Z,2.95
2024-01-12T10:29:58.998Z,2.98
2024-01-12T10:32:27.778Z,2.99
2024-01-12T10:34:55.044Z,3.02
2024-01-12T10:37:22.510Z,3.04
2024-01-12T10:39:50.500Z,3.06
2024-01-12T10:42:18.599Z,3.07
2024-01-12T10:44:46.498Z,3.09
2024-01-12T10:47:22.192Z,3.11
2024-01-12T10:49:57.950Z,3.13
2024-01-12T10:52:50.373Z,3.15
2024-01-12T10:55:17.861Z,3.17
2024-01-12T10:57:45.934Z,3.19
2024-01-12T11:00:13.011Z,3.21
2024-01-12T11:02:40.906Z,3.22
2024-01-12T11:05:11.959Z,3.23
2024-01-12T11:07:41.215Z,3.27
2024-01-12T11:10:08.881Z,3.30
2024-01-12T11:12:41.180Z,3.32
2024-01-12T11:15:09.100Z,3.33
2024-01-12T11:17:37.481Z,3.35
2024-01-12T11:20:18.300Z,3.36
2024-01-12T11:22:49.660Z,3.39
2024-01-12T11:25:17.461Z,3.42
2024-01-12T11:27:49.954Z,3.42
2024-01-12T11:30:21.438Z,3.43
2024-01-12T11:32:49.143Z,3.45
2024-01-12T11:35:17.187Z,3.47
2024-01-12T11:38:01.299Z,3.48
2024-01-12T11:40:29.000Z,3.50
2024-01-12T11:42:56.476Z,3.52
2024-01-12T11:45:23.043Z,3.54
2024-01-12T11:47:49.646Z,3.56
2024-01-12T11:50:17.312Z,3.58
2024-01-12T11:52:55.015Z,3.60
2024-01-12T11:55:21.674Z,3.62
2024-01-12T11:57:48.161Z,3.63
2024-01-12T12:00:15.114Z,3.65
2024-01-12T12:02:41.639Z,3.67
2024-01-12T12:05:13.084Z,3.67
2024-01-12T12:07:41.824Z,3.68
2024-01-12T12:10:12.718Z,3.70
2024-01-12T12:12:39.869Z,3.69
2024-01-12T12:15:13.895Z,3.71
2024-01-12T12:17:47.456Z,3.72
2024-01-12T12:20:14.385Z,3.73
2024-01-12T12:22:42.406Z,3.76
2024-01-12T12:25:11.045Z,3.77
2024-01-12T12:27:41.614Z,3.78
2024-01-12T12:30:15.186Z,3.78
2024-01-12T12:32:44.405Z,3.80
2024-01-12T12:35:19.372Z,3.82
2024-01-12T12:37:48.230Z,3.83
2024-01-12T12:40:16.204Z,3.88
2024-01-12T12:42:44.589Z,3.88
2024-01-12T12:45:11.788Z,3.88
2024-01-12T12:47:38.944Z,3.90
2024-01-12T12:50:06.623Z,3.89
2024-01-12T12:52:33.674Z,3.89
2024-01-12T12:55:01.077Z,3.88
2024-01-12T12:57:27.701Z,3.88
2024-01-12T12:59:54.630Z,3.90
2024-01-12T13:02:21.524Z,3.90
2024-01-12T13:04:48.549Z,3.92
2024-01-12T13:07:15.552Z,3.92
2024-01-12T13:09:42.642Z,3.93
2024-01-12T13:12:10.390Z,3.93
2024-01-12T13:14:37.313Z,3.94
2024-01-12T13:17:04.590Z,3.94
2024-01-12T13:19:31.801Z,3.95
2024-01-12T13:21:58.531Z,3.97
2024-01-12T13:24:25.293Z,3.98
2024-01-12T13:26:51.881Z,3.99
2024-01-12T13:29:18.380Z,4.02
2024-01-12T13:31:44.953Z,4.02
2024-01-12T13:34:15.480Z,4.01
2024-01-12T13:36:48.585Z,4.02
2024-01-12T13:39:15.365Z,4.04
2024-01-12T13:41:41.984Z,4.04
2024-01-12T13:44:08.508Z,4.07
2024-01-12T13:46:35.144Z,4.07
2024-01-12T13:49:01.903Z,4.08
2024-01-12T13:51:28.839Z,4.09
2024-01-12T13:53:56.083Z,4.11
2024-01-12T13:56:22.851Z,4.11
2024-01-12T13:58:49.328Z,4.13
2024-01-12T14:01:16.529Z,4.13
2024-01-12T14:03:47.878Z,4.23
2024-01-12T14:06:15.121Z,4.34
2024-01-12T14:08:44.583Z,4.31
2024-01-12T14:11:14.414Z,4.28
2024-01-12T14:13:41.191Z,4.26
2024-01-12T14:16:07.793Z,4.24
2024-01-12T14:18:34.493Z,4.24
2024-01-12T14:21:01.483Z,4.24
2024-01-12T14:23:28.158Z,4.27
2024-01-12T14:25:55.153Z,4.37
2024-01-12T14:28:29.412Z,4.35
2024-01-12T14:31:00.244Z,4.33
2024-01-12T14:33:28.002Z,4.33
2024-01-12T14:35:54.894Z,4.31
2024-01-12T14:38:21.629Z,4.29
2024-01-12T14:40:48.118Z,4.26
2024-01-12T14:43:14.601Z,4.26
2024-01-12T14:45:41.159Z,4.25
2024-01-12T14:48:11.591Z,4.24
2024-01-12T14:50:41.948Z,4.23
2024-01-12T14:53:09.789Z,4.23
2024-01-12T14:55:36.388Z,4.22
2024-01-12T14:58:03.000Z,4.18
2024-01-12T15:00:29.559Z,4.17
2024-01-12T15:02:56.051Z,4.13
2024-01-12T15:05:24.401Z,4.12
2024-01-12T15:07:51.718Z,4.10
2024-01-12T15:10:18.235Z,4.08
2024-01-12T15:12:47.174Z,4.07
2024-01-12T15:15:14.357Z,4.06
2024-01-12T15:17:41.981Z,4.03
2024-01-12T15:20:09.750Z,4.01
2024-01-12T15:22:36.543Z,4.02
2024-01-12T15:25:06.317Z,3.99
2024-01-12T15:27:32.995Z,3.96
2024-01-12T15:29:59.646Z,3.96
2024-01-12T15:32:26.759Z,3.96
2024-01-12T15:34:54.215Z,3.95
2024-01-12T15:37:21.311Z,3.96
2024-01-12T15:39:47.901Z,3.94
2024-01-12T15:42:14.586Z,3.95
2024-01-12T15:44:41.229Z,3.95
2024-01-12T15:47:07.842Z,3.95
2024-01-12T15:49:34.550Z,3.95
2024-01-12T15:52:01.192Z,3.95
2024-01-12T15:54:27.694Z,3.93
2024-01-12T15:56:55.168Z,3.93
2024-01-12T15:59:22.206Z,3.91
2024-01-12T16:01:48.881Z,3.89
2024-01-12T16:04:15.495Z,3.89
2024-01-12T16:06:46.161Z,3.90
2024-01-12T16:09:13.702Z,3.89
2024-01-12T16:11:40.605Z,3.90
2024-01-12T16:14:07.368Z,3.92
2024-01-12T16:16:33.920Z,3.92
2024-01-12T16:19:07.947Z,3.93
2024-01-12T16:21:38.920Z,3.93
2024-01-12T16:24:05.654Z,3.92
2024-01-12T16:26:38.740Z,3.91
2024-01-12T16:29:05.684Z,3.91
2024-01-12T16:31:32.188Z,3.92
2024-01-12T16:33:58.782Z,3.92
2024-01-12T16:36:25.412Z,3.93
2024-01-12T16:38:51.933Z,3.91
2024-01-12T16:41:18.516Z,3.93
2024-01-12T16:43:45.041Z,3.91
2024-01-12T16:46:11.502Z,3.90
2024-01-12T16:48:38.178Z,3.90
2024-01-12T16:51:05.111Z,3.88
2024-01-12T16:53:31.848Z,3.88
2024-01-12T16:55:58.375Z,3.89
2024-01-12T16:58:24.835Z,3.91
2024-01-12T17:00:52.395Z,3.91
2024-01-12T17:03:19.199Z,3.89
2024-01-12T17:05:45.981Z,3.89
2024-01-12T17:08:12.606Z,3.88
2024-01-12T17:10:39.175Z,3.86
2024-01-12T17:13:05.700Z,3.86
2024-01-12T17:15:32.263Z,3.86
2024-01-12T17:17:58.895Z,3.87
2024-01-12T17:20:25.765Z,3.86
2024-01-12T17:22:52.335Z,3.86
2024-01-12T17:25:18.805Z,3.84
2024-01-12T17:27:47.065Z,3.86
2024-01-12T17:30:15.714Z,3.84
2024-01-12T17:32:45.928Z,3.84
2024-01-12T17:35:12.698Z,3.83
2024-01-12T17:37:42.508Z,3.84
2024-01-12T17:40:10.108Z,3.84
2024-01-12T17:42:37.310Z,3.86
2024-01-12T17:45:07.303Z,3.85
2024-01-12T17:47:34.096Z,3.86
2024-01-12T17:50:01.035Z,3.84
2024-01-12T17:52:27.823Z,3.84
2024-01-12T17:54:56.461Z,3.83
2024-01-12T17:57:23.701Z,3.83
2024-01-12T17:59:50.287Z,3.82
2024-01-12T18:02:19.537Z,3.81
2024-01-12T18:04:48.050Z,3.81
2024-01-12T18:07:15.619Z,3.79
2024-01-12T18:09:44.933Z,3.79
2024-01-12T18:12:12.151Z,3.79
2024-01-12T18:14:39.177Z,3.81
2024-01-12T18:17:07.645Z,3.80
2024-01-12T18:19:37.196Z,3.79
2024-01-12T21:33:38.983Z,3.25
2024-01-12T21:36:05.933Z,3.22
2024-01-12T21:38:32.955Z,3.22
2024-01-12T21:40:59.743Z,3.21
2024-01-12T21:43:26.323Z,3.23
2024-01-12T21:45:53.441Z,3.25
2024-01-12T21:48:20.166Z,3.27
2024-01-12T21:50:47.004Z,3.30
2024-01-12T21:53:14.151Z,3.31
2024-01-12T21:55:40.631Z,3.33
2024-01-12T21:58:07.149Z,3.33
2024-01-12T22:00:34.604Z,3.35
2024-01-12T22:03:01.697Z,3.36
2024-01-12T22:05:28.422Z,3.37
2024-01-12T22:07:54.988Z,3.39
2024-01-12T22:10:21.564Z,3.41
2024-01-12T22:12:49.464Z,3.42
2024-01-12T22:15:16.194Z,3.43
2024-01-12T22:17:46.973Z,3.42
2024-01-12T22:20:13.834Z,3.42
2024-01-12T22:22:40.946Z,3.43
2024-01-12T22:25:08.302Z,3.42
2024-01-12T22:27:37.293Z,3.43
2024-01-12T22:30:04.305Z,3.44
2024-01-12T22:32:31.308Z,3.42
2024-01-12T22:34:57.971Z,3.43
2024-01-12T22:37:24.536Z,3.42
2024-01-12T22:39:51.061Z,3.43
2024-01-12T22:42:41.686Z,3.42
2024-01-12T22:45:08.838Z,3.43
2024-01-12T22:47:35.715Z,3.43
2024-01-12T22:50:05.554Z,3.43
2024-01-12T22:52:44.156Z,3.44
2024-01-12T22:55:13.835Z,3.45
2024-01-12T22:57:40.430Z,3.43
2024-01-12T23:00:25.494Z,3.43
2024-01-12T23:02:59.009Z,3.44
2024-01-12T23:05:25.706Z,3.46
2024-01-12T23:07:52.467Z,3.44
2024-01-12T23:10:27.173Z,3.46
2024-01-12T23:12:53.628Z,3.45
2024-01-12T23:15:20.598Z,3.46
2024-01-12T23:18:22.331Z,3.46
2024-01-12T23:20:49.002Z,3.45
2024-01-12T23:23:16.933Z,3.46
2024-01-12T23:25:43.491Z,3.47
2024-01-12T23:28:18.995Z,3.46
2024-01-12T23:30:45.730Z,3.47
2024-01-12T23:33:12.643Z,3.44
2024-01-12T23:35:46.407Z,3.44
2024-01-12T23:38:18.720Z,3.45
2024-01-12T23:40:52.175Z,3.44
2024-01-12T23:43:18.679Z,3.44
2024-01-12T23:45:47.269Z,3.44
2024-01-12T23:48:23.299Z,3.45
2024-01-12T23:51:11.675Z,3.45
2024-01-12T23:53:38.278Z,3.44
2024-01-12T23:56:29.923Z,3.45
2024-01-12T23:59:04.780Z,3.46
